sensor_id;sensor_type;location;lat;lon;timestamp;P1;durP1;ratioP1;P2;durP2;ratioP2
34900;SDS011;21112;51.976;5.660;2024-02-14T00:01:16;4.97;;;1.48;;
34900;SDS011;21112;51.976;5.660;2024-02-14T00:03:43;3.67;;;1.70;;
34900;SDS011;21112;51.976;5.660;2024-02-14T00:06:10;4.68;;;1.77;;
34900;SDS011;21112;51.976;5.660;2024-02-14T00:08:38;2.60;;;1.27;;
34900;SDS011;21112;51.976;5.660;2024-02-14T00:11:05;3.72;;;1.63;;
34900;SDS011;21112;51.976;5.660;2024-02-14T00:13:33;3.97;;;1.77;;
34900;SDS011;21112;51.976;5.660;2024-02-14T00:16:02;4.15;;;1.60;;
34900;SDS011;21112;51.976;5.660;2024-02-14T00:18:29;6.95;;;1.75;;
34900;SDS011;21112;51.976;5.660;2024-02-14T00:20:55;2.92;;;1.38;;
34900;SDS011;21112;51.976;5.660;2024-02-14T00:23:22;3.10;;;1.52;;
34900;SDS011;21112;51.976;5.660;2024-02-14T00:25:49;4.70;;;1.80;;
34900;SDS011;21112;51.976;5.660;2024-02-14T00:28:16;2.55;;;1.45;;
34900;SDS011;21112;51.976;5.660;2024-02-14T00:30:42;3.65;;;1.60;;
34900;SDS011;21112;51.976;5.660;2024-02-14T00:33:10;3.45;;;1.73;;
34900;SDS011;21112;51.976;5.660;2024-02-14T00:35:36;2.85;;;1.40;;
34900;SDS011;21112;51.976;5.660;2024-02-14T00:38:04;5.05;;;1.67;;
34900;SDS011;21112;51.976;5.660;2024-02-14T00:40:30;4.10;;;1.70;;
34900;SDS011;21112;51.976;5.660;2024-02-14T00:42:57;3.92;;;1.50;;
34900;SDS011;21112;51.976;5.660;2024-02-14T00:45:24;3.15;;;1.48;;
34900;SDS011;21112;51.976;5.660;2024-02-14T00:47:50;2.92;;;1.35;;
34900;SDS011;21112;51.976;5.660;2024-02-14T00:50:19;2.22;;;1.50;;
34900;SDS011;21112;51.976;5.660;2024-02-14T00:52:46;3.28;;;1.77;;
34900;SDS011;21112;51.976;5.660;2024-02-14T00:55:12;4.00;;;1.70;;
34900;SDS011;21112;51.976;5.660;2024-02-14T00:57:40;5.03;;;1.70;;
34900;SDS011;21112;51.976;5.660;2024-02-14T01:00:07;4.22;;;1.58;;
34900;SDS011;21112;51.976;5.660;2024-02-14T01:02:34;5.05;;;1.98;;
34900;SDS011;21112;51.976;5.660;2024-02-14T01:05:01;3.55;;;1.83;;
34900;SDS011;21112;51.976;5.660;2024-02-14T01:07:30;2.63;;;1.40;;
34900;SDS011;21112;51.976;5.660;2024-02-14T01:09:57;6.78;;;1.70;;
34900;SDS011;21112;51.976;5.660;2024-02-14T01:12:24;5.95;;;2.00;;
34900;SDS011;21112;51.976;5.660;2024-02-14T01:14:51;5.93;;;2.22;;
34900;SDS011;21112;51.976;5.660;2024-02-14T01:17:18;3.92;;;1.85;;
34900;SDS011;21112;51.976;5.660;2024-02-14T01:19:45;4.60;;;1.83;;
34900;SDS011;21112;51.976;5.660;2024-02-14T01:22:12;5.25;;;1.85;;
34900;SDS011;21112;51.976;5.660;2024-02-14T01:24:43;5.45;;;2.15;;
34900;SDS011;21112;51.976;5.660;2024-02-14T01:27:10;3.60;;;1.70;;
34900;SDS011;21112;51.976;5.660;2024-02-14T01:29:36;2.47;;;1.15;;
34900;SDS011;21112;51.976;5.660;2024-02-14T01:32:04;7.05;;;2.05;;
34900;SDS011;21112;51.976;5.660;2024-02-14T01:34:32;4.80;;;1.85;;
34900;SDS011;21112;51.976;5.660;2024-02-14T01:36:59;12.05;;;2.20;;
34900;SDS011;21112;51.976;5.660;2024-02-14T01:39:26;5.85;;;2.20;;
34900;SDS011;21112;51.976;5.660;2024-02-14T01:41:54;3.63;;;2.10;;
34900;SDS011;21112;51.976;5.660;2024-02-14T01:44:21;6.60;;;2.53;;
34900;SDS011;21112;51.976;5.660;2024-02-14T01:46:47;3.35;;;1.80;;
34900;SDS011;21112;51.976;5.660;2024-02-14T01:49:15;4.15;;;2.00;;
34900;SDS011;21112;51.976;5.660;2024-02-14T01:51:43;5.50;;;2.13;;
34900;SDS011;21112;51.976;5.660;2024-02-14T01:54:14;7.03;;;2.60;;
34900;SDS011;21112;51.976;5.660;2024-02-14T01:56:42;5.65;;;2.17;;
34900;SDS011;21112;51.976;5.660;2024-02-14T01:59:11;6.88;;;2.67;;
34900;SDS011;21112;51.976;5.660;2024-02-14T02:01:41;4.43;;;2.30;;
34900;SDS011;21112;51.976;5.660;2024-02-14T02:04:08;5.30;;;2.15;;
34900;SDS011;21112;51.976;5.660;2024-02-14T02:06:35;9.30;;;3.30;;
34900;SDS011;21112;51.976;5.660;2024-02-14T02:09:02;9.45;;;2.60;;
34900;SDS011;21112;51.976;5.660;2024-02-14T02:11:29;5.82;;;2.20;;
34900;SDS011;21112;51.976;5.660;2024-02-14T02:13:57;5.75;;;2.10;;
34900;SDS011;21112;51.976;5.660;2024-02-14T02:16:25;5.32;;;2.53;;
34900;SDS011;21112;51.976;5.660;2024-02-14T02:18:52;4.13;;;2.25;;
34900;SDS011;21112;51.976;5.660;2024-02-14T02:21:19;5.35;;;2.88;;
34900;SDS011;21112;51.976;5.660;2024-02-14T02:26:16;12.77;;;4.82;;
34900;SDS011;21112;51.976;5.660;2024-02-14T02:28:43;4.82;;;2.25;;
34900;SDS011;21112;51.976;5.660;2024-02-14T02:31:10;5.82;;;2.22;;
34900;SDS011;21112;51.976;5.660;2024-02-14T02:33:36;4.72;;;2.03;;
34900;SDS011;21112;51.976;5.660;2024-02-14T02:36:04;7.00;;;2.72;;
34900;SDS011;21112;51.976;5.660;2024-02-14T02:38:35;5.25;;;2.30;;
34900;SDS011;21112;51.976;5.660;2024-02-14T02:41:04;5.97;;;2.83;;
34900;SDS011;21112;51.976;5.660;2024-02-14T02:43:32;7.38;;;2.25;;
34900;SDS011;21112;51.976;5.660;2024-02-14T02:45:59;4.10;;;1.98;;
34900;SDS011;21112;51.976;5.660;2024-02-14T02:48:26;5.60;;;2.53;;
34900;SDS011;21112;51.976;5.660;2024-02-14T02:50:53;7.40;;;2.25;;
34900;SDS011;21112;51.976;5.660;2024-02-14T02:53:19;6.40;;;2.33;;
34900;SDS011;21112;51.976;5.660;2024-02-14T02:55:46;6.15;;;2.38;;
34900;SDS011;21112;51.976;5.660;2024-02-14T02:58:18;4.72;;;2.35;;
34900;SDS011;21112;51.976;5.660;2024-02-14T03:00:46;5.68;;;2.75;;
34900;SDS011;21112;51.976;5.660;2024-02-14T03:03:14;5.35;;;2.10;;
34900;SDS011;21112;51.976;5.660;2024-02-14T03:05:41;5.90;;;2.83;;
34900;SDS011;21112;51.976;5.660;2024-02-14T03:08:11;7.78;;;2.38;;
34900;SDS011;21112;51.976;5.660;2024-02-14T03:10:40;10.27;;;2.85;;
34900;SDS011;21112;51.976;5.660;2024-02-14T03:13:07;6.72;;;2.65;;
34900;SDS011;21112;51.976;5.660;2024-02-14T03:15:40;9.88;;;2.65;;
34900;SDS011;21112;51.976;5.660;2024-02-14T03:18:09;5.38;;;2.45;;
34900;SDS011;21112;51.976;5.660;2024-02-14T03:20:35;6.25;;;2.78;;
34900;SDS011;21112;51.976;5.660;2024-02-14T03:23:03;5.28;;;2.70;;
34900;SDS011;21112;51.976;5.660;2024-02-14T03:25:30;6.30;;;2.80;;
34900;SDS011;21112;51.976;5.660;2024-02-14T03:27:56;5.10;;;2.60;;
34900;SDS011;21112;51.976;5.660;2024-02-14T03:30:23;8.10;;;2.88;;
34900;SDS011;21112;51.976;5.660;2024-02-14T03:32:51;13.40;;;2.92;;
34900;SDS011;21112;51.976;5.660;2024-02-14T03:35:18;6.05;;;2.58;;
34900;SDS011;21112;51.976;5.660;2024-02-14T03:37:49;7.82;;;3.10;;
34900;SDS011;21112;51.976;5.660;2024-02-14T03:40:17;8.00;;;2.80;;
34900;SDS011;21112;51.976;5.660;2024-02-14T03:42:45;6.88;;;3.25;;
34900;SDS011;21112;51.976;5.660;2024-02-14T03:45:12;5.45;;;2.83;;
34900;SDS011;21112;51.976;5.660;2024-02-14T03:47:39;6.78;;;2.63;;
34900;SDS011;21112;51.976;5.660;2024-02-14T03:50:09;5.13;;;3.13;;
34900;SDS011;21112;51.976;5.660;2024-02-14T03:52:38;6.72;;;3.05;;
34900;SDS011;21112;51.976;5.660;2024-02-14T03:55:05;7.50;;;3.90;;
34900;SDS011;21112;51.976;5.660;2024-02-14T04:00:04;12.52;;;5.13;;
34900;SDS011;21112;51.976;5.660;2024-02-14T04:02:35;6.60;;;3.17;;
34900;SDS011;21112;51.976;5.660;2024-02-14T04:05:02;7.47;;;3.70;;
34900;SDS011;21112;51.976;5.660;2024-02-14T04:07:30;8.10;;;3.65;;
34900;SDS011;21112;51.976;5.660;2024-02-14T04:09:57;8.88;;;3.95;;
34900;SDS011;21112;51.976;5.660;2024-02-14T04:12:24;9.23;;;3.70;;
34900;SDS011;21112;51.976;5.660;2024-02-14T04:14:50;9.65;;;3.40;;
34900;SDS011;21112;51.976;5.660;2024-02-14T04:17:17;6.95;;;3.45;;
34900;SDS011;21112;51.976;5.660;2024-02-14T04:19:44;7.18;;;3.75;;
34900;SDS011;21112;51.976;5.660;2024-02-14T04:22:12;13.07;;;4.60;;
34900;SDS011;21112;51.976;5.660;2024-02-14T04:24:41;18.20;;;4.65;;
34900;SDS011;21112;51.976;5.660;2024-02-14T04:27:07;5.22;;;2.72;;
34900;SDS011;21112;51.976;5.660;2024-02-14T04:29:34;7.43;;;3.50;;
34900;SDS011;21112;51.976;5.660;2024-02-14T04:32:01;6.93;;;2.83;;
34900;SDS011;21112;51.976;5.660;2024-02-14T04:34:29;9.05;;;3.85;;
34900;SDS011;21112;51.976;5.660;2024-02-14T04:36:56;10.30;;;3.90;;
34900;SDS011;21112;51.976;5.660;2024-02-14T04:39:23;13.45;;;3.75;;
34900;SDS011;21112;51.976;5.660;2024-02-14T04:41:51;7.70;;;4.03;;
34900;SDS011;21112;51.976;5.660;2024-02-14T04:44:21;9.05;;;4.20;;
34900;SDS011;21112;51.976;5.660;2024-02-14T04:46:48;9.30;;;4.45;;
34900;SDS011;21112;51.976;5.660;2024-02-14T04:49:15;9.50;;;4.20;;
34900;SDS011;21112;51.976;5.660;2024-02-14T04:51:42;16.35;;;3.30;;
34900;SDS011;21112;51.976;5.660;2024-02-14T04:54:09;10.38;;;4.07;;
34900;SDS011;21112;51.976;5.660;2024-02-14T04:56:35;9.48;;;4.18;;
34900;SDS011;21112;51.976;5.660;2024-02-14T04:59:04;10.18;;;4.13;;
34900;SDS011;21112;51.976;5.660;2024-02-14T05:01:30;8.93;;;3.97;;
34900;SDS011;21112;51.976;5.660;2024-02-14T05:03:58;10.20;;;4.38;;
34900;SDS011;21112;51.976;5.660;2024-02-14T05:06:25;8.35;;;4.20;;
34900;SDS011;21112;51.976;5.660;2024-02-14T05:08:51;10.23;;;3.72;;
34900;SDS011;21112;51.976;5.660;2024-02-14T05:11:19;11.07;;;5.10;;
34900;SDS011;21112;51.976;5.660;2024-02-14T05:13:46;9.13;;;4.38;;
34900;SDS011;21112;51.976;5.660;2024-02-14T05:16:19;14.43;;;4.88;;
34900;SDS011;21112;51.976;5.660;2024-02-14T05:18:45;8.68;;;4.45;;
34900;SDS011;21112;51.976;5.660;2024-02-14T05:21:13;8.93;;;4.50;;
34900;SDS011;21112;51.976;5.660;2024-02-14T05:23:40;9.88;;;5.10;;
34900;SDS011;21112;51.976;5.660;2024-02-14T05:26:09;12.98;;;5.35;;
34900;SDS011;21112;51.976;5.660;2024-02-14T05:28:36;10.55;;;4.40;;
34900;SDS011;21112;51.976;5.660;2024-02-14T05:31:02;9.05;;;4.57;;
34900;SDS011;21112;51.976;5.660;2024-02-14T05:33:31;10.88;;;4.45;;
34900;SDS011;21112;51.976;5.660;2024-02-14T05:35:57;14.93;;;5.18;;
34900;SDS011;21112;51.976;5.660;2024-02-14T05:38:24;16.95;;;6.63;;
34900;SDS011;21112;51.976;5.660;2024-02-14T05:40:51;13.65;;;5.03;;
34900;SDS011;21112;51.976;5.660;2024-02-14T05:43:18;8.48;;;4.57;;
34900;SDS011;21112;51.976;5.660;2024-02-14T05:45:44;7.78;;;4.35;;
34900;SDS011;21112;51.976;5.660;2024-02-14T05:48:11;9.73;;;4.47;;
34900;SDS011;21112;51.976;5.660;2024-02-14T05:50:41;8.43;;;3.95;;
34900;SDS011;21112;51.976;5.660;2024-02-14T05:53:08;8.63;;;4.55;;
34900;SDS011;21112;51.976;5.660;2024-02-14T05:55:37;9.55;;;5.03;;
34900;SDS011;21112;51.976;5.660;2024-02-14T05:58:04;6.65;;;3.75;;
34900;SDS011;21112;51.976;5.660;2024-02-14T06:00:31;9.38;;;4.10;;
34900;SDS011;21112;51.976;5.660;2024-02-14T06:02:58;7.90;;;4.10;;
34900;SDS011;21112;51.976;5.660;2024-02-14T06:05:25;8.23;;;4.10;;
34900;SDS011;21112;51.976;5.660;2024-02-14T06:07:53;15.35;;;6.60;;
34900;SDS011;21112;51.976;5.660;2024-02-14T06:10:20;9.93;;;4.57;;
34900;SDS011;21112;51.976;5.660;2024-02-14T06:12:47;8.63;;;4.43;;
34900;SDS011;21112;51.976;5.660;2024-02-14T06:15:14;10.25;;;4.80;;
34900;SDS011;21112;51.976;5.660;2024-02-14T06:17:41;7.20;;;4.07;;
34900;SDS011;21112;51.976;5.660;2024-02-14T06:20:11;11.02;;;4.78;;
34900;SDS011;21112;51.976;5.660;2024-02-14T06:22:38;7.90;;;4.38;;
34900;SDS011;21112;51.976;5.660;2024-02-14T06:25:10;8.88;;;4.05;;
34900;SDS011;21112;51.976;5.660;2024-02-14T06:27:36;12.68;;;6.13;;
34900;SDS011;21112;51.976;5.660;2024-02-14T06:30:04;13.48;;;5.63;;
34900;SDS011;21112;51.976;5.660;2024-02-14T06:32:32;12.13;;;4.30;;
34900;SDS011;21112;51.976;5.660;2024-02-14T06:34:59;12.50;;;4.80;;
34900;SDS011;21112;51.976;5.660;2024-02-14T06:37:25;9.15;;;4.30;;
34900;SDS011;21112;51.976;5.660;2024-02-14T06:39:52;18.55;;;7.13;;
34900;SDS011;21112;51.976;5.660;2024-02-14T06:42:21;8.50;;;4.55;;
34900;SDS011;21112;51.976;5.660;2024-02-14T06:44:48;9.20;;;5.07;;
34900;SDS011;21112;51.976;5.660;2024-02-14T06:47:15;9.48;;;4.57;;
34900;SDS011;21112;51.976;5.660;2024-02-14T06:49:43;8.90;;;4.15;;
34900;SDS011;21112;51.976;5.660;2024-02-14T06:52:13;7.55;;;4.10;;
34900;SDS011;21112;51.976;5.660;2024-02-14T06:54:40;8.10;;;3.97;;
34900;SDS011;21112;51.976;5.660;2024-02-14T06:57:07;11.48;;;4.32;;
34900;SDS011;21112;51.976;5.660;2024-02-14T06:59:36;8.43;;;4.20;;
34900;SDS011;21112;51.976;5.660;2024-02-14T07:02:04;8.35;;;4.65;;
34900;SDS011;21112;51.976;5.660;2024-02-14T07:04:31;10.37;;;4.23;;
34900;SDS011;21112;51.976;5.660;2024-02-14T07:06:59;6.10;;;3.28;;
34900;SDS011;21112;51.976;5.660;2024-02-14T07:09:25;9.57;;;4.43;;
34900;SDS011;21112;51.976;5.660;2024-02-14T07:11:53;8.80;;;3.78;;
34900;SDS011;21112;51.976;5.660;2024-02-14T07:17:25;7.55;;;3.75;;
34900;SDS011;21112;51.976;5.660;2024-02-14T07:19:52;7.28;;;3.75;;
34900;SDS011;21112;51.976;5.660;2024-02-14T07:22:19;10.10;;;4.28;;
34900;SDS011;21112;51.976;5.660;2024-02-14T07:24:46;7.82;;;4.03;;
34900;SDS011;21112;51.976;5.660;2024-02-14T07:27:13;8.52;;;4.50;;
34900;SDS011;21112;51.976;5.660;2024-02-14T07:32:13;7.38;;;4.13;;
34900;SDS011;21112;51.976;5.660;2024-02-14T07:34:40;13.00;;;5.03;;
34900;SDS011;21112;51.976;5.660;2024-02-14T07:37:07;9.77;;;5.45;;
34900;SDS011;21112;51.976;5.660;2024-02-14T07:39:34;12.98;;;5.15;;
34900;SDS011;21112;51.976;5.660;2024-02-14T07:42:01;9.98;;;5.15;;
34900;SDS011;21112;51.976;5.660;2024-02-14T07:44:28;11.55;;;4.88;;
34900;SDS011;21112;51.976;5.660;2024-02-14T07:46:58;11.43;;;5.25;;
34900;SDS011;21112;51.976;5.660;2024-02-14T07:49:27;11.90;;;6.05;;
34900;SDS011;21112;51.976;5.660;2024-02-14T07:51:53;14.18;;;5.88;;
34900;SDS011;21112;51.976;5.660;2024-02-14T07:54:22;10.73;;;5.70;;
34900;SDS011;21112;51.976;5.660;2024-02-14T07:56:49;12.90;;;5.65;;
34900;SDS011;21112;51.976;5.660;2024-02-14T07:59:15;10.02;;;5.15;;
34900;SDS011;21112;51.976;5.660;2024-02-14T08:01:42;11.00;;;5.28;;
34900;SDS011;21112;51.976;5.660;2024-02-14T08:04:10;8.70;;;4.68;;
34900;SDS011;21112;51.976;5.660;2024-02-14T08:06:42;12.27;;;5.18;;
34900;SDS011;21112;51.976;5.660;2024-02-14T08:09:11;10.15;;;4.80;;
34900;SDS011;21112;51.976;5.660;2024-02-14T08:11:38;14.18;;;5.10;;
34900;SDS011;21112;51.976;5.660;2024-02-14T08:14:05;9.73;;;4.70;;
34900;SDS011;21112;51.976;5.660;2024-02-14T08:16:32;12.30;;;5.03;;
34900;SDS011;21112;51.976;5.660;2024-02-14T08:19:01;9.48;;;4.65;;
34900;SDS011;21112;51.976;5.660;2024-02-14T08:21:28;8.63;;;4.22;;
34900;SDS011;21112;51.976;5.660;2024-02-14T08:23:57;8.07;;;4.68;;
34900;SDS011;21112;51.976;5.660;2024-02-14T08:26:25;10.52;;;4.97;;
34900;SDS011;21112;51.976;5.660;2024-02-14T08:28:52;10.48;;;4.90;;
34900;SDS011;21112;51.976;5.660;2024-02-14T08:31:19;9.13;;;4.63;;
34900;SDS011;21112;51.976;5.660;2024-02-14T08:33:47;10.05;;;4.43;;
34900;SDS011;21112;51.976;5.660;2024-02-14T08:36:14;9.43;;;4.53;;
34900;SDS011;21112;51.976;5.660;2024-02-14T08:38:42;9.73;;;4.03;;
34900;SDS011;21112;51.976;5.660;2024-02-14T08:41:10;9.38;;;4.65;;
34900;SDS011;21112;51.976;5.660;2024-02-14T08:43:39;7.32;;;3.38;;
34900;SDS011;21112;51.976;5.660;2024-02-14T08:46:09;8.95;;;4.40;;
34900;SDS011;21112;51.976;5.660;2024-02-14T08:48:36;8.40;;;4.05;;
34900;SDS011;21112;51.976;5.660;2024-02-14T08:51:07;9.68;;;4.57;;
34900;SDS011;21112;51.976;5.660;2024-02-14T08:53:34;8.15;;;3.72;;
34900;SDS011;21112;51.976;5.660;2024-02-14T08:56:04;7.35;;;3.35;;
34900;SDS011;21112;51.976;5.660;2024-02-14T08:58:32;14.68;;;4.57;;
34900;SDS011;21112;51.976;5.660;2024-02-14T09:01:00;10.82;;;4.88;;
34900;SDS011;21112;51.976;5.660;2024-02-14T09:03:27;9.05;;;4.25;;
34900;SDS011;21112;51.976;5.660;2024-02-14T09:05:56;10.57;;;5.07;;
34900;SDS011;21112;51.976;5.660;2024-02-14T09:08:28;12.98;;;5.07;;
34900;SDS011;21112;51.976;5.660;2024-02-14T09:10:56;10.75;;;4.68;;
34900;SDS011;21112;51.976;5.660;2024-02-14T09:13:24;8.13;;;3.97;;
34900;SDS011;21112;51.976;5.660;2024-02-14T09:15:54;10.07;;;4.78;;
34900;SDS011;21112;51.976;5.660;2024-02-14T09:18:20;8.18;;;4.35;;
34900;SDS011;21112;51.976;5.660;2024-02-14T09:20:49;11.90;;;5.45;;
34900;SDS011;21112;51.976;5.660;2024-02-14T09:23:16;12.65;;;5.00;;
34900;SDS011;21112;51.976;5.660;2024-02-14T09:25:45;12.02;;;5.28;;
34900;SDS011;21112;51.976;5.660;2024-02-14T09:28:13;10.43;;;5.03;;
34900;SDS011;21112;51.976;5.660;2024-02-14T09:30:40;10.10;;;4.95;;
34900;SDS011;21112;51.976;5.660;2024-02-14T09:33:08;14.05;;;5.05;;
34900;SDS011;21112;51.976;5.660;2024-02-14T09:35:35;8.48;;;4.28;;
34900;SDS011;21112;51.976;5.660;2024-02-14T09:38:03;8.70;;;4.78;;
34900;SDS011;21112;51.976;5.660;2024-02-14T09:40:30;9.98;;;4.63;;
34900;SDS011;21112;51.976;5.660;2024-02-14T09:42:58;13.98;;;5.28;;
34900;SDS011;21112;51.976;5.660;2024-02-14T09:45:32;12.52;;;4.80;;
34900;SDS011;21112;51.976;5.660;2024-02-14T09:47:59;8.45;;;4.47;;
34900;SDS011;21112;51.976;5.660;2024-02-14T09:50:29;9.80;;;4.85;;
34900;SDS011;21112;51.976;5.660;2024-02-14T09:52:57;9.77;;;4.55;;
34900;SDS011;21112;51.976;5.660;2024-02-14T09:55:25;9.90;;;4.63;;
34900;SDS011;21112;51.976;5.660;2024-02-14T09:57:52;7.55;;;4.13;;
34900;SDS011;21112;51.976;5.660;2024-02-14T10:00:20;10.70;;;4.63;;
34900;SDS011;21112;51.976;5.660;2024-02-14T10:02:51;8.18;;;4.20;;
34900;SDS011;21112;51.976;5.660;2024-02-14T10:05:21;11.23;;;4.63;;
34900;SDS011;21112;51.976;5.660;2024-02-14T10:07:50;10.85;;;4.30;;
34900;SDS011;21112;51.976;5.660;2024-02-14T10:10:17;8.90;;;4.15;;
34900;SDS011;21112;51.976;5.660;2024-02-14T10:12:43;11.35;;;4.20;;
34900;SDS011;21112;51.976;5.660;2024-02-14T10:15:11;12.02;;;4.78;;
34900;SDS011;21112;51.976;5.660;2024-02-14T10:17:38;7.50;;;3.95;;
34900;SDS011;21112;51.976;5.660;2024-02-14T10:20:07;8.15;;;4.30;;
34900;SDS011;21112;51.976;5.660;2024-02-14T10:22:36;10.02;;;4.13;;
34900;SDS011;21112;51.976;5.660;2024-02-14T10:25:10;9.50;;;4.20;;
34900;SDS011;21112;51.976;5.660;2024-02-14T10:27:38;11.52;;;5.03;;
34900;SDS011;21112;51.976;5.660;2024-02-14T10:30:06;8.93;;;4.15;;
34900;SDS011;21112;51.976;5.660;2024-02-14T10:32:34;12.77;;;5.78;;
34900;SDS011;21112;51.976;5.660;2024-02-14T10:35:03;8.15;;;4.53;;
34900;SDS011;21112;51.976;5.660;2024-02-14T10:37:34;15.13;;;7.22;;
34900;SDS011;21112;51.976;5.660;2024-02-14T10:40:05;7.43;;;4.13;;
34900;SDS011;21112;51.976;5.660;2024-02-14T10:42:36;10.65;;;4.60;;
34900;SDS011;21112;51.976;5.660;2024-02-14T10:45:03;10.52;;;4.30;;
34900;SDS011;21112;51.976;5.660;2024-02-14T10:47:31;9.98;;;4.45;;
34900;SDS011;21112;51.976;5.660;2024-02-14T10:50:02;11.77;;;4.35;;
34900;SDS011;21112;51.976;5.660;2024-02-14T10:52:30;7.25;;;3.95;;
34900;SDS011;21112;51.976;5.660;2024-02-14T10:54:59;11.85;;;3.78;;
34900;SDS011;21112;51.976;5.660;2024-02-14T10:57:32;8.55;;;4.28;;
34900;SDS011;21112;51.976;5.660;2024-02-14T11:02:30;12.13;;;4.63;;
34900;SDS011;21112;51.976;5.660;2024-02-14T11:04:57;9.95;;;5.00;;
34900;SDS011;21112;51.976;5.660;2024-02-14T11:07:27;11.60;;;3.93;;
34900;SDS011;21112;51.976;5.660;2024-02-14T11:10:00;9.02;;;4.65;;
34900;SDS011;21112;51.976;5.660;2024-02-14T11:12:34;7.28;;;4.30;;
34900;SDS011;21112;51.976;5.660;2024-02-14T11:15:08;9.05;;;3.78;;
34900;SDS011;21112;51.976;5.660;2024-02-14T11:17:36;8.10;;;3.78;;
34900;SDS011;21112;51.976;5.660;2024-02-14T11:20:12;8.52;;;4.40;;
34900;SDS011;21112;51.976;5.660;2024-02-14T11:25:36;8.90;;;4.35;;
34900;SDS011;21112;51.976;5.660;2024-02-14T11:28:14;10.50;;;4.60;;
34900;SDS011;21112;51.976;5.660;2024-02-14T11:30:41;16.50;;;4.72;;
34900;SDS011;21112;51.976;5.660;2024-02-14T11:33:15;11.63;;;4.93;;
34900;SDS011;21112;51.976;5.660;2024-02-14T11:35:45;8.35;;;3.83;;
34900;SDS011;21112;51.976;5.660;2024-02-14T11:38:13;8.57;;;3.13;;
34900;SDS011;21112;51.976;5.660;2024-02-14T11:40:39;9.48;;;4.07;;
34900;SDS011;21112;51.976;5.660;2024-02-14T11:43:10;8.13;;;4.07;;
34900;SDS011;21112;51.976;5.660;2024-02-14T11:45:41;7.55;;;3.92;;
34900;SDS011;21112;51.976;5.660;2024-02-14T11:48:08;8.52;;;3.60;;
34900;SDS011;21112;51.976;5.660;2024-02-14T11:50:39;9.73;;;3.70;;
34900;SDS011;21112;51.976;5.660;2024-02-14T11:53:08;8.65;;;3.50;;
34900;SDS011;21112;51.976;5.660;2024-02-14T11:55:37;12.32;;;3.55;;
34900;SDS011;21112;51.976;5.660;2024-02-14T11:58:08;11.13;;;3.83;;
34900;SDS011;21112;51.976;5.660;2024-02-14T12:00:37;10.63;;;3.83;;
34900;SDS011;21112;51.976;5.660;2024-02-14T12:03:07;8.90;;;3.65;;
34900;SDS011;21112;51.976;5.660;2024-02-14T12:05:39;9.13;;;3.47;;
34900;SDS011;21112;51.976;5.660;2024-02-14T12:08:16;12.55;;;4.82;;
34900;SDS011;21112;51.976;5.660;2024-02-14T12:10:54;8.23;;;3.83;;
34900;SDS011;21112;51.976;5.660;2024-02-14T12:13:21;7.15;;;3.38;;
34900;SDS011;21112;51.976;5.660;2024-02-14T12:15:53;8.77;;;4.15;;
34900;SDS011;21112;51.976;5.660;2024-02-14T12:18:22;9.63;;;4.05;;
34900;SDS011;21112;51.976;5.660;2024-02-14T12:20:48;7.22;;;3.35;;
34900;SDS011;21112;51.976;5.660;2024-02-14T12:23:17;5.88;;;2.85;;
34900;SDS011;21112;51.976;5.660;2024-02-14T12:25:46;6.90;;;2.95;;
34900;SDS011;21112;51.976;5.660;2024-02-14T12:28:17;8.23;;;3.00;;
34900;SDS011;21112;51.976;5.660;2024-02-14T12:30:50;5.72;;;2.83;;
34900;SDS011;21112;51.976;5.660;2024-02-14T12:33:22;7.25;;;3.20;;
34900;SDS011;21112;51.976;5.660;2024-02-14T12:35:51;6.90;;;3.05;;
34900;SDS011;21112;51.976;5.660;2024-02-14T12:38:20;9.20;;;2.90;;
34900;SDS011;21112;51.976;5.660;2024-02-14T12:43:15;6.72;;;2.72;;
34900;SDS011;21112;51.976;5.660;2024-02-14T12:45:42;6.60;;;2.88;;
34900;SDS011;21112;51.976;5.660;2024-02-14T12:48:10;8.32;;;3.47;;
34900;SDS011;21112;51.976;5.660;2024-02-14T12:50:40;5.57;;;3.00;;
34900;SDS011;21112;51.976;5.660;2024-02-14T12:53:13;5.65;;;2.80;;
34900;SDS011;21112;51.976;5.660;2024-02-14T12:55:40;4.78;;;2.38;;
34900;SDS011;21112;51.976;5.660;2024-02-14T12:58:09;4.78;;;2.33;;
34900;SDS011;21112;51.976;5.660;2024-02-14T13:03:03;3.95;;;1.98;;
34900;SDS011;21112;51.976;5.660;2024-02-14T13:05:30;4.40;;;2.03;;
34900;SDS011;21112;51.976;5.660;2024-02-14T13:07:59;5.15;;;2.40;;
34900;SDS011;21112;51.976;5.660;2024-02-14T13:10:28;4.88;;;2.63;;
34900;SDS011;21112;51.976;5.660;2024-02-14T13:12:56;5.90;;;2.05;;
34900;SDS011;21112;51.976;5.660;2024-02-14T13:15:23;4.63;;;2.20;;
34900;SDS011;21112;51.976;5.660;2024-02-14T13:17:53;5.38;;;2.30;;
34900;SDS011;21112;51.976;5.660;2024-02-14T13:20:21;5.07;;;2.03;;
34900;SDS011;21112;51.976;5.660;2024-02-14T13:22:49;3.20;;;1.88;;
34900;SDS011;21112;51.976;5.660;2024-02-14T13:25:21;5.20;;;2.00;;
34900;SDS011;21112;51.976;5.660;2024-02-14T13:27:48;3.92;;;1.83;;
34900;SDS011;21112;51.976;5.660;2024-02-14T13:30:24;3.78;;;2.08;;
34900;SDS011;21112;51.976;5.660;2024-02-14T13:32:54;4.60;;;2.13;;
34900;SDS011;21112;51.976;5.660;2024-02-14T13:35:25;4.00;;;1.88;;
34900;SDS011;21112;51.976;5.660;2024-02-14T13:37:53;6.20;;;2.15;;
34900;SDS011;21112;51.976;5.660;2024-02-14T13:40:25;8.90;;;2.28;;
34900;SDS011;21112;51.976;5.660;2024-02-14T13:42:51;3.65;;;1.92;;
34900;SDS011;21112;51.976;5.660;2024-02-14T13:48:15;5.00;;;2.28;;
34900;SDS011;21112;51.976;5.660;2024-02-14T13:50:48;6.18;;;2.65;;
34900;SDS011;21112;51.976;5.660;2024-02-14T13:55:49;4.32;;;2.30;;
34900;SDS011;21112;51.976;5.660;2024-02-14T13:58:16;6.25;;;3.20;;
34900;SDS011;21112;51.976;5.660;2024-02-14T14:00:44;6.22;;;2.90;;
34900;SDS011;21112;51.976;5.660;2024-02-14T14:03:10;5.65;;;2.60;;
34900;SDS011;21112;51.976;5.660;2024-02-14T14:05:38;7.45;;;3.17;;
34900;SDS011;21112;51.976;5.660;2024-02-14T14:08:08;6.53;;;2.70;;
34900;SDS011;21112;51.976;5.660;2024-02-14T14:10:35;6.63;;;3.17;;
34900;SDS011;21112;51.976;5.660;2024-02-14T14:13:04;9.48;;;4.07;;
34900;SDS011;21112;51.976;5.660;2024-02-14T14:15:31;6.45;;;3.53;;
34900;SDS011;21112;51.976;5.660;2024-02-14T14:17:58;6.15;;;2.83;;
34900;SDS011;21112;51.976;5.660;2024-02-14T14:20:25;7.82;;;3.00;;
34900;SDS011;21112;51.976;5.660;2024-02-14T14:22:52;5.45;;;2.97;;
34900;SDS011;21112;51.976;5.660;2024-02-14T14:25:19;8.45;;;3.28;;
34900;SDS011;21112;51.976;5.660;2024-02-14T14:27:46;5.45;;;3.13;;
34900;SDS011;21112;51.976;5.660;2024-02-14T14:30:15;8.10;;;3.70;;
34900;SDS011;21112;51.976;5.660;2024-02-14T14:32:45;6.82;;;3.67;;
34900;SDS011;21112;51.976;5.660;2024-02-14T14:35:14;6.40;;;2.72;;
34900;SDS011;21112;51.976;5.660;2024-02-14T14:37:41;8.32;;;3.40;;
34900;SDS011;21112;51.976;5.660;2024-02-14T14:40:11;4.95;;;2.85;;
34900;SDS011;21112;51.976;5.660;2024-02-14T14:42:43;7.00;;;3.10;;
34900;SDS011;21112;51.976;5.660;2024-02-14T14:45:10;6.70;;;2.92;;
34900;SDS011;21112;51.976;5.660;2024-02-14T14:47:43;6.97;;;3.15;;
34900;SDS011;21112;51.976;5.660;2024-02-14T14:50:30;6.68;;;2.92;;
34900;SDS011;21112;51.976;5.660;2024-02-14T14:52:57;6.38;;;3.35;;
34900;SDS011;21112;51.976;5.660;2024-02-14T14:55:24;6.50;;;3.03;;
34900;SDS011;21112;51.976;5.660;2024-02-14T14:57:51;12.50;;;2.70;;
34900;SDS011;21112;51.976;5.660;2024-02-14T15:00:21;7.50;;;2.90;;
34900;SDS011;21112;51.976;5.660;2024-02-14T15:02:53;5.20;;;2.67;;
34900;SDS011;21112;51.976;5.660;2024-02-14T15:05:19;5.93;;;2.88;;
34900;SDS011;21112;51.976;5.660;2024-02-14T15:07:46;5.95;;;2.67;;
34900;SDS011;21112;51.976;5.660;2024-02-14T15:10:19;14.20;;;4.32;;
34900;SDS011;21112;51.976;5.660;2024-02-14T15:12:47;7.25;;;3.60;;
34900;SDS011;21112;51.976;5.660;2024-02-14T15:15:14;9.60;;;3.45;;
34900;SDS011;21112;51.976;5.660;2024-02-14T15:17:42;5.60;;;2.88;;